Orleans, IN (47452)

1:07 AM EST on February 12, 2016 (GMT -0500)
B&K Mundy Farms | | Change Station
CLOSE
Current Station
Personal Weather Station
Location: Mitchell, IN
Elevation: 656 ft
Nearby Weather Stations
Active Advisory: Special Statement

Elev 656 ft 38.71 °N, 86.49 °W | Updated 4 minutes ago

Overcast
Overcast
23.6 °F
Feels Like 24 °F
N
1.0
Wind Variable Wind from ESE
Gusts 4.0 mph

Today
High -- | Low -- °F
--% Chance of Precip.
Yesterday
High -- | Low -- °F
Precip. -- in
Pressure 30.28 in
Visibility 10.0 miles
Clouds Clear
Windchill 24 °F
Dew Point 14 °F
Humidity 68%
Rainfall 0.00 in
Snow Depth Not available.
7:40 AM 6:19 PM
Waxing Crescent, 17% visible
METAR KBMG 120553Z AUTO 00000KT 10SM CLR M06/M12 A3025 RMK AO2 SLP253 T10561117 11044 21061 58010
Pressure 30.28 in
Visibility 10.0 miles
Clouds Clear
Windchill 24 °F
Dew Point 14 °F
Humidity 68%
Rainfall 0.00 in
Snow Depth Not available.
7:40 AM 6:19 PM
Waxing Crescent, 17% visible
METAR KBMG 120553Z AUTO 00000KT 10SM CLR M06/M12 A3025 RMK AO2 SLP253 T10561117 11044 21061 58010

10-Day Weather Forecast

Almanac

Astronomy

Feb. 12, 2016 Rise Set
Actual Time
Civil Twilight
Nautical Twilight
Astronomical Twilight
Moon
Length of Visible Light
Length of Day
Tomorrow will be .
, % of the Moon is Illuminated

Today's Extremes

State Highs State Lows

Community

WunderPhotos

Upload Photos

1,892,270 photos uploaded!

WunderBlog® & News

Nearby

Air Quality

  Air Quality AQ Index Pollutant
Not available.

Snow Depth

Station Depth Elevation

Earthquake Activity

City Distance Mag. Time & Date
Minimum magnitude displayed is 2.5.

Coastal Water Temperatures

Place Temperature

Stations

Nearby Weather Stations

Station Location Temp. Windchill Dew Point Humidity Wind Precip. Elev Updated Type
                   

Watches & Warnings

Special Statement
Issued: 8:34 PM CST Feb. 11, 2016 – National Weather Service

... Light snow around the Friday morning commute...

Light snow will overspread the region just before and around dawn.
With temperatures in the upper teens and lower 20s... all snow will
stick to untreated surfaces. Although accumulations are only
expected to be a half an inch or less... a few slick spots are
possible for the morning commute. Use caution and allow extra
time if traveling in the morning.


Bjs/eer